Time;durP1;ratioP1;P1;durP2;ratioP2;P2;SDS_P1;SDS_P2;PMS_P1;PMS_P2;Temp;Humidity;BMP_temperature;BMP_pressure;BME280_temperature;BME280_humidity;BME280_pressure;Samples;Min_cycle;Max_cycle;Signal;HPM_P1;HPM_P2
2023/10/15 00:00:31;;;;;;;;;;;;;;;10.78;100.00;101226.56;5078810;28;19936;-75
2023/10/15 00:03:16;;;;;;;;;;;;;;;10.80;100.00;101235.44;5099021;28;19919;-75
2023/10/15 00:06:00;;;;;;;;;;;;;;;10.78;100.00;101225.69;5096952;28;19978;-75
2023/10/15 00:08:44;;;;;;;;;;;;;;;10.73;100.00;101234.88;5092192;28;19938;-75
2023/10/15 00:11:28;;;;;;;;;;;;;;;10.77;100.00;101232.38;5082372;28;19919;-75
2023/10/15 00:14:13;;;;;;;;;;;;;;;10.76;100.00;101234.31;5095393;28;19918;-75
2023/10/15 00:16:59;;;;;;;;;;;;;;;10.70;100.00;101236.28;5092011;28;19950;-75
2023/10/15 00:19:43;;;;;;;;;;;;;;;10.73;100.00;101240.44;5127628;27;19962;-75
2023/10/15 00:22:27;;;;;;;;;;;;;;;10.75;100.00;101238.19;5095758;28;19919;-75
2023/10/15 00:25:14;;;;;;;;;;;;;;;10.72;100.00;101238.75;5092682;28;19919;-75
2023/10/15 00:27:58;;;;;;;;;;;;;;;10.76;100.00;101244.63;5081535;28;19990;-75
2023/10/15 00:30:44;;;;;;;;;;;;;;;10.77;100.00;101241.53;5097281;28;19922;-75
2023/10/15 00:33:27;;;;;;;;;;;;;;;10.80;100.00;101234.59;5087573;28;19919;-75
2023/10/15 00:36:18;;;;;;;;;;;;;;;10.79;100.00;101244.06;5087800;28;19949;-75
2023/10/15 00:39:09;;;;;;;;;;;;;;;10.79;100.00;101242.09;5097303;28;19919;-75
2023/10/15 00:41:54;;;;;;;;;;;;;;;10.79;100.00;101244.88;5096034;28;19923;-75
2023/10/15 00:44:37;;;;;;;;;;;;;;;10.83;100.00;101240.44;5092616;28;19951;-75
2023/10/15 00:47:21;;;;;;;;;;;;;;;10.81;100.00;101244.59;5067881;28;20364;-75
2023/10/15 00:50:08;;;;;;;;;;;;;;;10.82;100.00;101247.09;5125941;27;19919;-75
2023/10/15 00:52:52;;;;;;;;;;;;;;;10.83;100.00;101245.16;5083231;28;19919;-75
2023/10/15 00:55:37;;;;;;;;;;;;;;;10.83;100.00;101250.72;5091565;28;19920;-75
2023/10/15 00:58:31;;;;;;;;;;;;;;;10.87;100.00;101249.06;5093654;28;19923;-75
2023/10/15 01:04:09;;;;;;;;;;;;;;;10.88;100.00;101239.59;5091337;28;19965;-75
2023/10/15 01:06:57;;;;;;;;;;;;;;;10.88;100.00;101242.38;5077764;28;19977;-75
2023/10/15 01:09:41;;;;;;;;;;;;;;;10.89;100.00;101238.47;5096451;28;20268;-75
2023/10/15 01:12:31;;;;;;;;;;;;;;;10.89;100.00;101244.03;5098334;28;20389;-75
2023/10/15 01:15:14;;;;;;;;;;;;;;;10.84;100.00;101241.28;5087844;28;19918;-75
2023/10/15 01:18:06;;;;;;;;;;;;;;;10.87;100.00;101249.06;5082695;28;19922;-75
2023/10/15 01:20:50;;;;;;;;;;;;;;;10.87;100.00;101235.16;5083260;28;19920;-75
2023/10/15 01:26:25;;;;;;;;;;;;;;;10.89;100.00;101241.25;5080330;28;19974;-75
2023/10/15 01:29:15;;;;;;;;;;;;;;;10.85;100.00;101237.38;5092663;28;19927;-75
2023/10/15 01:32:03;;;;;;;;;;;;;;;10.88;100.00;101243.22;5094358;28;19923;-75
2023/10/15 01:34:48;;;;;;;;;;;;;;;10.85;100.00;101248.50;5097914;28;19973;-75
2023/10/15 01:37:36;;;;;;;;;;;;;;;10.86;100.00;101245.41;5097195;28;19927;-75
2023/10/15 01:43:24;;;;;;;;;;;;;;;10.77;100.00;101247.09;5092005;28;20379;-75
2023/10/15 01:46:10;;;;;;;;;;;;;;;10.83;100.00;101240.44;5082783;28;19920;-75
2023/10/15 01:48:54;;;;;;;;;;;;;;;10.78;100.00;101242.38;5086387;28;19923;-75
2023/10/15 01:51:44;;;;;;;;;;;;;;;10.76;100.00;101242.66;5096497;28;19919;-75
2023/10/15 01:54:28;;;;;;;;;;;;;;;10.74;100.00;101244.88;5071961;28;19966;-75
2023/10/15 01:57:15;;;;;;;;;;;;;;;10.69;100.00;101245.69;5090678;28;20000;-75
2023/10/15 02:00:12;;;;;;;;;;;;;;;10.67;100.00;101236.84;5103720;28;20017;-75
2023/10/15 02:02:56;;;;;;;;;;;;;;;10.63;100.00;101241.25;5089585;28;19935;-75
2023/10/15 02:05:44;;;;;;;;;;;;;;;10.64;100.00;101237.38;5076597;28;19958;-75
2023/10/15 02:08:28;;;;;;;;;;;;;;;10.62;100.00;101241.56;5097184;28;19989;-75
2023/10/15 02:11:15;;;;;;;;;;;;;;;10.61;100.00;101239.88;5095942;28;20003;-75
2023/10/15 02:14:00;;;;;;;;;;;;;;;10.58;100.00;101237.63;5096758;28;19923;-75
2023/10/15 02:16:49;;;;;;;;;;;;;;;10.59;100.00;101242.94;5099552;28;19982;-75
2023/10/15 02:19:40;;;;;;;;;;;;;;;10.60;100.00;101241.81;5100630;28;19941;-75
2023/10/15 02:22:24;;;;;;;;;;;;;;;10.60;100.00;101246.53;5087089;28;19919;-75
2023/10/15 02:25:08;;;;;;;;;;;;;;;10.62;100.00;101244.31;5101648;28;19919;-75
2023/10/15 02:27:52;;;;;;;;;;;;;;;10.64;100.00;101242.09;5071901;28;19923;-75
2023/10/15 02:30:40;;;;;;;;;;;;;;;10.62;100.00;101244.31;5097085;28;20015;-75
2023/10/15 02:33:25;;;;;;;;;;;;;;;10.60;100.00;101241.81;5086112;28;19969;-75
2023/10/15 02:36:09;;;;;;;;;;;;;;;10.59;100.00;101245.72;5090851;28;19927;-75
2023/10/15 02:38:54;;;;;;;;;;;;;;;10.61;100.00;101242.63;5098166;28;19989;-75
2023/10/15 02:41:41;;;;;;;;;;;;;;;10.56;100.00;101243.50;5079719;28;19957;-75
2023/10/15 02:44:25;;;;;;;;;;;;;;;10.55;100.00;101241.81;5078853;28;19920;-75
2023/10/15 02:50:18;;;;;;;;;;;;;;;10.48;100.00;101244.03;5100390;28;20004;-75
2023/10/15 02:53:05;;;;;;;;;;;;;;;10.45;100.00;101242.63;5095746;28;19947;-75
2023/10/15 02:55:48;;;;;;;;;;;;;;;10.39;100.00;101245.66;5099897;28;19919;-75
2023/10/15 02:58:32;;;;;;;;;;;;;;;10.39;100.00;101251.22;5097801;28;19938;-75
2023/10/15 03:01:20;;;;;;;;;;;;;;;10.29;100.00;101252.03;5100557;28;20371;-75
2023/10/15 03:04:07;;;;;;;;;;;;;;;10.28;100.00;101239.28;5085343;28;19922;-75
2023/10/15 03:06:50;;;;;;;;;;;;;;;10.23;100.00;101245.63;5086508;28;20298;-75
2023/10/15 03:09:34;;;;;;;;;;;;;;;10.22;100.00;101240.31;5100564;28;19920;-75
2023/10/15 03:12:19;;;;;;;;;;;;;;;10.17;100.00;101249.50;5098971;28;20355;-75
2023/10/15 03:15:04;;;;;;;;;;;;;;;10.14;100.00;101243.63;5070247;28;20436;-75
2023/10/15 03:17:48;;;;;;;;;;;;;;;10.07;100.00;101249.44;5097115;28;19976;-75
2023/10/15 03:20:39;;;;;;;;;;;;;;;10.02;100.00;101246.66;5099388;28;20031;-75
2023/10/15 03:23:24;;;;;;;;;;;;;;;10.01;100.00;101245.81;5080179;28;20013;-75
2023/10/15 03:26:18;;;;;;;;;;;;;;;9.97;100.00;101255.81;5097966;28;20034;-75
2023/10/15 03:29:06;;;;;;;;;;;;;;;9.88;100.00;101260.19;5094737;28;19969;-75
2023/10/15 03:31:58;;;;;;;;;;;;;;;9.87;100.00;101255.75;5100617;28;19918;-75
2023/10/15 03:34:59;;;;;;;;;;;;;;;9.81;100.00;101257.69;5090397;28;20010;-75
2023/10/15 03:37:47;;;;;;;;;;;;;;;9.74;100.00;101256.25;5086955;28;20287;-75
2023/10/15 03:43:20;;;;;;;;;;;;;;;9.65;100.00;101263.44;5093034;28;19958;-75
2023/10/15 03:46:17;;;;;;;;;;;;;;;9.58;100.00;101258.97;5083276;28;20268;-75
2023/10/15 03:49:04;;;;;;;;;;;;;;;9.53;100.00;101261.72;5095337;28;19924;-74
2023/10/15 03:51:48;;;;;;;;;;;;;;;9.48;100.00;101264.44;5097785;28;20060;-75
2023/10/15 03:54:33;;;;;;;;;;;;;;;9.46;100.00;101266.66;5072621;28;19923;-75
2023/10/15 03:57:18;;;;;;;;;;;;;;;9.39;100.00;101260.53;5086383;28;19943;-75
2023/10/15 04:00:11;;;;;;;;;;;;;;;9.35;100.00;101264.91;5081789;28;20461;-75
2023/10/15 04:05:50;;;;;;;;;;;;;;;9.27;100.00;101273.72;5082322;28;19920;-75
2023/10/15 04:08:34;;;;;;;;;;;;;;;9.18;100.00;101267.84;5091278;28;20481;-75
2023/10/15 04:11:29;;;;;;;;;;;;;;;9.15;100.00;101273.94;5098262;28;19981;-75
2023/10/15 04:14:32;;;;;;;;;;;;;;;9.11;100.00;101265.31;5091377;28;19958;-75
2023/10/15 04:17:16;;;;;;;;;;;;;;;9.05;100.00;101266.34;5090098;28;19919;-75
2023/10/15 04:20:00;;;;;;;;;;;;;;;8.98;100.00;101265.78;5080815;28;19919;-75
2023/10/15 04:22:46;;;;;;;;;;;;;;;8.95;100.00;101269.06;5096071;28;20417;-75
2023/10/15 04:25:33;;;;;;;;;;;;;;;8.90;100.00;101266.25;5098171;28;19961;-75
2023/10/15 04:28:19;;;;;;;;;;;;;;;8.87;100.00;101264.03;5082934;28;19923;-75
2023/10/15 04:31:11;;;;;;;;;;;;;;;8.78;100.00;101271.16;5098969;28;20276;-75
2023/10/15 04:33:56;;;;;;;;;;;;;;;8.76;100.00;101268.63;5097893;28;19962;-75
2023/10/15 04:36:40;;;;;;;;;;;;;;;8.68;100.00;101274.66;5088291;28;19955;-75
2023/10/15 04:39:24;;;;;;;;;;;;;;;8.63;100.00;101280.97;5085346;28;19970;-75
2023/10/15 04:42:12;;;;;;;;;;;;;;;8.64;100.00;101267.97;5095566;28;19919;-75
2023/10/15 04:44:59;;;;;;;;;;;;;;;8.60;100.00;101277.88;5091281;28;19935;-75
2023/10/15 04:47:44;;;;;;;;;;;;;;;8.53;100.00;101285.59;5077767;28;19969;-75
2023/10/15 04:50:29;;;;;;;;;;;;;;;8.50;100.00;101281.41;5097858;28;19919;-75
2023/10/15 04:53:14;;;;;;;;;;;;;;;8.45;100.00;101284.13;5079069;28;20375;-75
2023/10/15 04:56:00;;;;;;;;;;;;;;;8.43;100.00;101284.38;5116523;27;19922;-75
2023/10/15 04:58:44;;;;;;;;;;;;;;;8.41;100.00;101285.72;5083016;28;19934;-75
2023/10/15 05:01:30;;;;;;;;;;;;;;;8.39;100.00;101290.72;5093759;28;20016;-75
2023/10/15 05:04:14;;;;;;;;;;;;;;;8.32;100.00;101281.72;5080614;28;19926;-75
2023/10/15 05:06:58;;;;;;;;;;;;;;;8.28;100.00;101285.03;5077820;28;19966;-75
2023/10/15 05:09:44;;;;;;;;;;;;;;;8.23;100.00;101290.50;5081714;28;20271;-75
2023/10/15 05:12:28;;;;;;;;;;;;;;;8.22;100.00;101279.69;5090552;28;19947;-75
2023/10/15 05:15:13;;;;;;;;;;;;;;;8.18;100.00;101281.28;5085768;28;19919;-75
2023/10/15 05:17:57;;;;;;;;;;;;;;;8.16;100.00;101280.72;5095488;28;20275;-75
2023/10/15 05:20:41;;;;;;;;;;;;;;;8.14;100.00;101281.00;5109826;28;19957;-75
2023/10/15 05:23:25;;;;;;;;;;;;;;;8.13;100.00;101278.47;5097094;28;19918;-75
2023/10/15 05:26:09;;;;;;;;;;;;;;;8.10;100.00;101276.22;5081888;28;20331;-75
2023/10/15 05:28:53;;;;;;;;;;;;;;;8.09;100.00;101280.91;5077020;28;20470;-75
2023/10/15 05:31:37;;;;;;;;;;;;;;;8.04;100.00;101278.09;5081023;28;20383;-75
2023/10/15 05:34:21;;;;;;;;;;;;;;;8.04;100.00;101278.09;5096562;28;19919;-75
2023/10/15 05:37:06;;;;;;;;;;;;;;;8.05;100.00;101285.28;5092706;28;19927;-75
2023/10/15 05:39:50;;;;;;;;;;;;;;;8.03;100.00;101276.44;5097356;28;20004;-75
2023/10/15 05:42:34;;;;;;;;;;;;;;;8.02;100.00;101266.44;5077744;28;20264;-75
2023/10/15 05:45:18;;;;;;;;;;;;;;;8.03;100.00;101271.72;5093432;28;19919;-75
2023/10/15 05:48:03;;;;;;;;;;;;;;;8.03;100.00;101274.50;5076487;28;20307;-75
2023/10/15 05:50:50;;;;;;;;;;;;;;;8.02;100.00;101271.97;5070665;28;20359;-75
2023/10/15 05:53:34;;;;;;;;;;;;;;;8.09;100.00;101275.38;5077788;28;19919;-75
2023/10/15 05:56:18;;;;;;;;;;;;;;;8.07;100.00;101277.56;5090610;28;19919;-75
2023/10/15 05:59:03;;;;;;;;;;;;;;;8.13;100.00;101276.53;5084445;28;19923;-75
2023/10/15 06:01:50;;;;;;;;;;;;;;;8.09;100.00;101280.09;5081851;28;20342;-75
2023/10/15 06:04:36;;;;;;;;;;;;;;;8.10;100.00;101277.03;5082392;28;19919;-75
2023/10/15 06:07:20;;;;;;;;;;;;;;;8.07;100.00;101280.34;5097395;28;20260;-75
2023/10/15 06:10:05;;;;;;;;;;;;;;;8.08;100.00;101284.78;5068838;28;20351;-75
2023/10/15 06:12:49;;;;;;;;;;;;;;;8.05;100.00;101277.84;5092203;28;20350;-75
2023/10/15 06:15:33;;;;;;;;;;;;;;;8.04;100.00;101289.16;5098661;28;19962;-75
2023/10/15 06:18:17;;;;;;;;;;;;;;;8.04;100.00;101284.44;5084245;28;19961;-75
2023/10/15 06:21:01;;;;;;;;;;;;;;;8.06;100.00;101286.97;5094349;28;19919;-75
2023/10/15 06:23:45;;;;;;;;;;;;;;;8.06;100.00;101287.81;5096508;28;19919;-75
2023/10/15 06:26:29;;;;;;;;;;;;;;;8.13;100.00;101295.91;5086304;28;20280;-75
2023/10/15 06:29:13;;;;;;;;;;;;;;;8.12;100.00;101285.94;5095738;28;19924;-75
2023/10/15 06:31:59;;;;;;;;;;;;;;;8.12;100.00;101291.47;5099360;28;19966;-75
2023/10/15 06:34:43;;;;;;;;;;;;;;;8.12;100.00;101291.47;5082353;28;19961;-75
2023/10/15 06:37:27;;;;;;;;;;;;;;;8.14;100.00;101294.81;5081505;28;19982;-75
2023/10/15 06:40:13;;;;;;;;;;;;;;;8.13;100.00;101303.38;5092846;28;19936;-75
2023/10/15 06:43:00;;;;;;;;;;;;;;;8.16;100.00;101308.38;5089783;28;19919;-75
2023/10/15 06:45:44;;;;;;;;;;;;;;;8.11;100.00;101298.09;5078952;28;19919;-76
2023/10/15 06:48:28;;;;;;;;;;;;;;;8.13;100.00;101301.44;5094517;28;20371;-78
2023/10/15 06:51:12;;;;;;;;;;;;;;;8.15;100.00;101306.72;5081860;28;19919;-79
2023/10/15 06:53:56;;;;;;;;;;;;;;;8.13;100.00;101315.25;5089216;28;19919;-79
2023/10/15 06:56:41;;;;;;;;;;;;;;;8.14;100.00;101305.88;5092789;28;19935;-79
2023/10/15 06:59:27;;;;;;;;;;;;;;;8.16;100.00;101309.25;5075695;28;20020;-78
2023/10/15 07:02:13;;;;;;;;;;;;;;;8.17;100.00;101305.38;5086444;28;19919;-79
2023/10/15 07:04:57;;;;;;;;;;;;;;;8.20;100.00;101310.38;5097651;28;19919;-79
2023/10/15 07:07:41;;;;;;;;;;;;;;;8.24;100.00;101303.22;5082491;28;19930;-79
2023/10/15 07:10:25;;;;;;;;;;;;;;;8.27;100.00;101311.03;5079785;28;19939;-79
2023/10/15 07:13:10;;;;;;;;;;;;;;;8.31;100.00;101310.50;5100218;28;19920;-79
2023/10/15 07:15:54;;;;;;;;;;;;;;;8.39;100.00;101323.91;5096047;28;19966;-79
2023/10/15 07:18:39;;;;;;;;;;;;;;;8.42;100.00;101320.63;5109177;28;20003;-79
2023/10/15 07:21:23;;;;;;;;;;;;;;;8.47;100.00;101320.69;5092890;28;20046;-78
2023/10/15 07:24:11;;;;;;;;;;;;;;;8.54;100.00;101326.00;5074756;28;21564;-79
2023/10/15 07:26:55;;;;;;;;;;;;;;;8.61;100.00;101327.47;5092571;28;19918;-79
2023/10/15 07:29:39;;;;;;;;;;;;;;;8.67;100.00;101320.91;5087060;28;19927;-79
2023/10/15 07:32:24;;;;;;;;;;;;;;;8.77;100.00;101335.94;5089082;28;19923;-79
2023/10/15 07:35:11;;;;;;;;;;;;;;;8.84;100.00;101345.72;5095920;28;19931;-78
2023/10/15 07:37:56;;;;;;;;;;;;;;;8.93;100.00;101337.75;5098622;28;19942;-79
2023/10/15 07:40:40;;;;;;;;;;;;;;;9.05;100.00;101343.13;5089243;28;19918;-78
2023/10/15 07:43:24;;;;;;;;;;;;;;;9.16;100.00;101356.81;5094796;28;20359;-79
2023/10/15 07:46:08;;;;;;;;;;;;;;;9.31;100.00;101358.03;5092970;28;19920;-78
2023/10/15 07:48:52;;;;;;;;;;;;;;;9.41;100.00;101352.56;5085680;28;19923;-78
2023/10/15 07:51:37;;;;;;;;;;;;;;;9.54;100.00;101356.81;5084458;28;19919;-79
2023/10/15 07:54:22;;;;;;;;;;;;;;;9.68;100.00;101359.97;5074583;28;19974;-79
2023/10/15 07:57:07;;;;;;;;;;;;;;;9.83;100.00;101355.34;5084311;28;19920;-79
2023/10/15 07:59:53;;;;;;;;;;;;;;;9.97;100.00;101358.50;5094418;28;19919;-79
2023/10/15 08:02:39;;;;;;;;;;;;;;;10.12;100.00;101356.88;5099536;28;20271;-79
2023/10/15 08:05:24;;;;;;;;;;;;;;;10.25;100.00;101354.44;5086080;28;20015;-79
2023/10/15 08:08:08;;;;;;;;;;;;;;;10.39;100.00;101354.81;5083957;28;19926;-79
2023/10/15 08:10:52;;;;;;;;;;;;;;;10.51;100.00;101365.69;5098573;28;19970;-79
2023/10/15 08:13:36;;;;;;;;;;;;;;;10.64;100.00;101359.63;5086600;28;20406;-79
2023/10/15 08:16:20;;;;;;;;;;;;;;;10.76;100.00;101348.25;5095525;28;19919;-78
2023/10/15 08:19:04;;;;;;;;;;;;;;;10.87;100.00;101358.25;5083964;28;20026;-79
2023/10/15 08:21:48;;;;;;;;;;;;;;;10.98;100.00;101361.91;5077110;28;19920;-79
2023/10/15 08:24:32;;;;;;;;;;;;;;;11.12;100.00;101364.97;5097221;28;20374;-79
2023/10/15 08:27:16;;;;;;;;;;;;;;;11.25;100.00;101369.13;5098978;28;19972;-78
2023/10/15 08:30:00;;;;;;;;;;;;;;;11.36;100.00;101371.63;5090678;28;20316;-79
2023/10/15 08:32:44;;;;;;;;;;;;;;;11.50;100.00;101363.56;5100592;28;20398;-79
2023/10/15 08:35:28;;;;;;;;;;;;;;;11.64;100.00;101372.16;5112674;28;19965;-79
2023/10/15 08:38:12;;;;;;;;;;;;;;;11.77;100.00;101376.34;5098873;28;20015;-79
2023/10/15 08:40:58;;;;;;;;;;;;;;;11.89;100.00;101373.28;5087397;28;20413;-78
2023/10/15 08:43:44;;;;;;;;;;;;;;;12.05;100.00;101372.13;5095239;28;19962;-79
2023/10/15 08:46:28;;;;;;;;;;;;;;;12.16;100.00;101370.97;5091653;28;19919;-79
2023/10/15 08:49:12;;;;;;;;;;;;;;;12.32;100.00;101370.94;5091468;28;20014;-79
2023/10/15 08:51:56;;;;;;;;;;;;;;;12.42;100.00;101368.06;5096005;28;19957;-79
2023/10/15 08:54:40;;;;;;;;;;;;;;;12.55;100.00;101364.66;5084987;28;19967;-79
2023/10/15 08:57:25;;;;;;;;;;;;;;;12.60;100.00;101386.94;5071935;28;20371;-79
2023/10/15 09:00:25;;;;;;;;;;;;;;;12.78;100.00;101377.06;5111035;28;20041;-79
2023/10/15 09:03:13;;;;;;;;;;;;;;;12.82;100.00;101372.59;5081606;28;20336;-79
2023/10/15 09:05:57;;;;;;;;;;;;;;;12.95;100.00;101377.56;5097577;28;20014;-79
2023/10/15 09:08:41;;;;;;;;;;;;;;;13.04;100.00;101380.56;5082465;28;19924;-78
2023/10/15 09:11:25;;;;;;;;;;;;;;;13.08;100.00;101378.00;5094562;28;19919;-79
2023/10/15 09:14:13;;;;;;;;;;;;;;;13.06;100.00;101380.25;5097818;28;20019;-79
2023/10/15 09:16:58;;;;;;;;;;;;;;;13.13;100.00;101376.00;5097795;28;19937;-79
2023/10/15 09:19:42;;;;;;;;;;;;;;;13.16;100.00;101383.81;5098202;28;19968;-79
2023/10/15 09:22:26;;;;;;;;;;;;;;;13.25;100.00;101385.97;5080026;28;20414;-78
2023/10/15 09:25:14;;;;;;;;;;;;;;;13.32;100.00;101383.72;5085856;28;19982;-79
2023/10/15 09:27:58;;;;;;;;;;;;;;;13.45;100.00;101385.00;5112457;27;19987;-78
2023/10/15 09:30:42;;;;;;;;;;;;;;;13.62;100.00;101377.03;5094332;28;20275;-79
2023/10/15 09:33:27;;;;;;;;;;;;;;;13.75;100.00;101381.09;5095806;28;19920;-79
2023/10/15 09:36:11;;;;;;;;;;;;;;;13.86;100.00;101383.50;5087878;28;20343;-79
2023/10/15 09:38:56;;;;;;;;;;;;;;;14.03;100.00;101391.41;5095753;28;20371;-78
2023/10/15 09:41:41;;;;;;;;;;;;;;;14.09;100.00;101392.19;5094902;28;19919;-78
2023/10/15 09:44:25;;;;;;;;;;;;;;;14.10;100.00;101393.88;5095823;28;19977;-79
2023/10/15 09:47:09;;;;;;;;;;;;;;;14.30;100.00;101395.59;5097703;28;20014;-79
2023/10/15 09:49:54;;;;;;;;;;;;;;;14.31;100.00;101392.47;5082480;28;19934;-79
2023/10/15 09:52:38;;;;;;;;;;;;;;;14.23;100.00;101381.97;5088683;28;19920;-79
2023/10/15 09:55:23;;;;;;;;;;;;;;;14.38;100.00;101386.53;5081588;28;20371;-79
2023/10/15 09:58:09;;;;;;;;;;;;;;;14.48;100.00;101379.97;5077795;28;19961;-79
2023/10/15 10:03:38;;;;;;;;;;;;;;;14.60;100.00;101374.84;5096276;28;19919;-78
2023/10/15 10:06:32;;;;;;;;;;;;;;;14.71;100.00;101367.16;5097754;28;19981;-78
2023/10/15 10:09:22;;;;;;;;;;;;;;;14.75;100.00;101377.41;5096154;28;19938;-79
2023/10/15 10:12:06;;;;;;;;;;;;;;;14.84;100.00;101374.75;5091945;28;19918;-79
2023/10/15 10:14:50;;;;;;;;;;;;;;;14.92;100.00;101359.28;5095666;28;20339;-74
2023/10/15 10:17:35;;;;;;;;;;;;;;;14.90;100.00;101362.38;5096727;28;19934;-75
2023/10/15 10:20:21;;;;;;;;;;;;;;;14.86;98.39;101363.28;5090661;28;19919;-74
2023/10/15 10:23:06;;;;;;;;;;;;;;;14.76;99.31;101361.47;5083698;28;19919;-74
2023/10/15 10:25:50;;;;;;;;;;;;;;;14.75;98.24;101355.03;5081976;28;20004;-74
2023/10/15 10:28:35;;;;;;;;;;;;;;;14.88;98.14;101353.47;5095939;28;19923;-74
2023/10/15 10:31:19;;;;;;;;;;;;;;;14.82;96.71;101348.22;5085103;28;19923;-74
2023/10/15 10:34:03;;;;;;;;;;;;;;;14.92;94.51;101351.72;5094451;28;19962;-74
2023/10/15 10:36:51;;;;;;;;;;;;;;;14.91;94.95;101360.41;5092690;28;19958;-74
2023/10/15 10:39:42;;;;;;;;;;;;;;;14.99;94.96;101354.16;5094160;28;19962;-74
2023/10/15 10:42:26;;;;;;;;;;;;;;;14.97;94.82;101356.41;5098610;28;19935;-74
2023/10/15 10:45:12;;;;;;;;;;;;;;;14.94;94.20;101366.22;5082889;28;19938;-74
2023/10/15 10:47:56;;;;;;;;;;;;;;;14.95;95.78;101365.09;5093935;28;20284;-74
2023/10/15 10:50:46;;;;;;;;;;;;;;;15.02;94.51;101369.50;5088266;28;19986;-74
2023/10/15 10:53:30;;;;;;;;;;;;;;;15.06;91.61;101356.56;5097556;28;19920;-74
2023/10/15 10:56:16;;;;;;;;;;;;;;;15.10;89.48;101357.59;5092088;28;20011;-74
2023/10/15 10:59:00;;;;;;;;;;;;;;;15.13;87.80;101357.00;5092345;28;19919;-74
2023/10/15 11:01:47;;;;;;;;;;;;;;;15.15;89.96;101360.31;5098293;28;19938;-74
2023/10/15 11:04:31;;;;;;;;;;;;;;;15.04;86.89;101362.44;5093915;28;19935;-74
2023/10/15 11:07:16;;;;;;;;;;;;;;;15.00;85.73;101366.16;5100731;28;19918;-74
2023/10/15 11:10:05;;;;;;;;;;;;;;;14.97;83.14;101371.22;5085378;28;20018;-74
2023/10/15 11:12:49;;;;;;;;;;;;;;;15.03;85.31;101359.97;5095146;28;19918;-74
2023/10/15 11:15:33;;;;;;;;;;;;;;;15.05;84.81;101358.53;5088947;28;19923;-74
2023/10/15 11:18:21;;;;;;;;;;;;;;;15.07;88.74;101361.00;5087085;28;19920;-74
2023/10/15 11:21:07;;;;;;;;;;;;;;;15.16;85.69;101346.03;5093403;28;19918;-74
2023/10/15 11:23:53;;;;;;;;;;;;;;;15.18;87.48;101349.34;5100318;28;19919;-74
2023/10/15 11:26:38;;;;;;;;;;;;;;;15.25;85.22;101351.75;5079432;28;19920;-74
2023/10/15 11:29:22;;;;;;;;;;;;;;;15.31;84.33;101344.94;5115779;28;20003;-75
2023/10/15 11:32:08;;;;;;;;;;;;;;;15.35;84.14;101346.00;5109389;28;20011;-74
2023/10/15 11:34:52;;;;;;;;;;;;;;;15.41;85.96;101339.16;5092997;28;19923;-74
2023/10/15 11:37:36;;;;;;;;;;;;;;;15.50;84.00;101344.06;5106057;28;19970;-74
2023/10/15 11:40:20;;;;;;;;;;;;;;;15.62;81.08;101338.78;5079970;28;19991;-74
2023/10/15 11:43:19;;;;;;;;;;;;;;;15.72;81.61;101333.06;5092787;28;19923;-74
2023/10/15 11:46:07;;;;;;;;;;;;;;;15.75;79.63;101332.44;5098965;28;20402;-74
2023/10/15 11:48:51;;;;;;;;;;;;;;;15.75;76.36;101342.81;5097663;28;19927;-74
2023/10/15 11:51:36;;;;;;;;;;;;;;;15.81;74.28;101331.19;5098500;28;19919;-74
2023/10/15 11:54:20;;;;;;;;;;;;;;;15.78;70.50;101329.00;5088017;28;19919;-74
2023/10/15 11:57:05;;;;;;;;;;;;;;;15.79;74.31;101327.84;5083151;28;19923;-74
2023/10/15 11:59:49;;;;;;;;;;;;;;;15.84;75.18;101324.13;5098277;28;19935;-74
2023/10/15 12:02:33;;;;;;;;;;;;;;;15.91;76.22;101318.09;5098327;28;19962;-74
2023/10/15 12:05:17;;;;;;;;;;;;;;;15.80;69.27;101312.72;5086555;28;19919;-74
2023/10/15 12:08:03;;;;;;;;;;;;;;;15.80;71.39;101307.13;5097946;28;19922;-74
2023/10/15 12:10:47;;;;;;;;;;;;;;;15.80;73.72;101307.13;5097678;28;19919;-74
2023/10/15 12:13:31;;;;;;;;;;;;;;;15.93;76.37;101307.44;5086540;28;20006;-74
2023/10/15 12:16:16;;;;;;;;;;;;;;;15.97;75.21;101300.91;5098244;28;19980;-74
2023/10/15 12:19:00;;;;;;;;;;;;;;;15.92;73.82;101298.22;5098841;28;19958;-74
2023/10/15 12:21:43;;;;;;;;;;;;;;;15.91;70.25;101292.91;5077816;28;19923;-74
2023/10/15 12:24:28;;;;;;;;;;;;;;;15.84;69.46;101301.72;5097936;28;19919;-74
2023/10/15 12:27:11;;;;;;;;;;;;;;;15.80;64.62;101295.09;5083142;28;19927;-74
2023/10/15 12:29:55;;;;;;;;;;;;;;;15.84;66.76;101294.16;5101344;28;20001;-74
2023/10/15 12:32:39;;;;;;;;;;;;;;;15.93;68.03;101283.03;5108507;28;19941;-74
2023/10/15 12:35:24;;;;;;;;;;;;;;;15.84;67.53;101284.91;5102816;28;19923;-74
2023/10/15 12:38:12;;;;;;;;;;;;;;;15.90;70.44;101283.66;5091340;28;20000;-74
2023/10/15 12:40:59;;;;;;;;;;;;;;;15.95;71.88;101283.56;5086128;28;20003;-74
2023/10/15 12:43:43;;;;;;;;;;;;;;;16.08;71.37;101271.53;5098173;28;19919;-74
2023/10/15 12:46:29;;;;;;;;;;;;;;;16.14;67.81;101266.66;5092373;28;19935;-74
2023/10/15 12:49:13;;;;;;;;;;;;;;;16.28;69.58;101264.66;5098533;28;19939;-74
2023/10/15 12:51:58;;;;;;;;;;;;;;;16.31;66.07;101258.41;5098331;28;19918;-75
2023/10/15 12:54:42;;;;;;;;;;;;;;;16.14;64.71;101261.03;5084975;28;19957;-74
2023/10/15 12:57:26;;;;;;;;;;;;;;;16.12;63.27;101257.72;5085750;28;19919;-74
2023/10/15 13:00:17;;;;;;;;;;;;;;;16.17;61.33;101254.81;5092135;28;20015;-74
2023/10/15 13:03:03;;;;;;;;;;;;;;;16.06;62.64;101247.78;5091928;28;19919;-74
2023/10/15 13:05:47;;;;;;;;;;;;;;;16.04;66.44;101258.44;5098387;28;19918;-74
2023/10/15 13:08:31;;;;;;;;;;;;;;;16.03;65.80;101254.81;5087017;28;19930;-74
2023/10/15 13:11:15;;;;;;;;;;;;;;;15.90;64.86;101247.25;5096813;28;19920;-74
2023/10/15 13:13:59;;;;;;;;;;;;;;;15.92;64.17;101235.75;5097683;28;19922;-75
2023/10/15 13:16:43;;;;;;;;;;;;;;;15.82;67.28;101246.03;5088222;28;19959;-74
2023/10/15 13:19:28;;;;;;;;;;;;;;;15.74;66.69;101245.91;5095074;28;19919;-74
2023/10/15 13:22:12;;;;;;;;;;;;;;;15.74;66.25;101243.97;5097919;28;19926;-74
2023/10/15 13:24:56;;;;;;;;;;;;;;;15.73;66.29;101241.47;5085592;28;19986;-74
2023/10/15 13:27:40;;;;;;;;;;;;;;;15.73;67.50;101236.69;5098472;28;19939;-75
2023/10/15 13:30:24;;;;;;;;;;;;;;;15.72;69.08;101253.81;5110239;28;19923;-74
2023/10/15 13:33:09;;;;;;;;;;;;;;;15.59;67.46;101247.84;5102880;28;19955;-74
2023/10/15 13:35:57;;;;;;;;;;;;;;;15.64;69.69;101242.16;5093293;28;19958;-75
2023/10/15 13:38:41;;;;;;;;;;;;;;;15.56;68.94;101245.66;5092841;28;19935;-74
2023/10/15 13:41:26;;;;;;;;;;;;;;;15.54;67.81;101247.13;5090651;28;19959;-74
2023/10/15 13:44:10;;;;;;;;;;;;;;;15.47;62.15;101255.94;5085269;28;19920;-74
2023/10/15 13:46:55;;;;;;;;;;;;;;;15.45;62.97;101261.00;5094304;28;19934;-74
2023/10/15 13:49:39;;;;;;;;;;;;;;;15.42;64.79;101256.03;5097149;28;19924;-74
2023/10/15 13:52:23;;;;;;;;;;;;;;;15.32;63.90;101254.25;5089690;28;19919;-74
2023/10/15 13:55:07;;;;;;;;;;;;;;;15.30;66.79;101253.72;5091917;28;19965;-74
2023/10/15 13:57:52;;;;;;;;;;;;;;;15.27;66.40;101245.97;5096303;28;19966;-75
2023/10/15 14:00:37;;;;;;;;;;;;;;;15.18;66.11;101244.97;5105836;28;19957;-74
2023/10/15 14:03:21;;;;;;;;;;;;;;;15.06;66.25;101242.69;5101665;28;20427;-75
2023/10/15 14:06:05;;;;;;;;;;;;;;;15.09;67.68;101241.25;5080891;28;19919;-74
2023/10/15 14:08:50;;;;;;;;;;;;;;;15.08;67.83;101239.59;5097351;28;19923;-74
2023/10/15 14:11:34;;;;;;;;;;;;;;;15.01;70.91;101241.94;5100586;28;19961;-74
2023/10/15 14:14:18;;;;;;;;;;;;;;;15.07;71.85;101243.50;5101034;28;19923;-74
2023/10/15 14:17:02;;;;;;;;;;;;;;;15.05;69.58;101243.81;5106867;28;20256;-74
2023/10/15 14:19:46;;;;;;;;;;;;;;;15.00;66.91;101245.88;5100668;28;20264;-74
2023/10/15 14:22:30;;;;;;;;;;;;;;;14.93;69.58;101233.13;5096893;28;19919;-74
2023/10/15 14:25:14;;;;;;;;;;;;;;;14.98;72.08;101235.00;5085875;28;19923;-74